createdAt,value
2019-02-25T06:19:13.364Z,4.69
2019-02-25T06:20:13.339Z,4.70
2019-02-25T06:21:13.370Z,4.70
2019-02-25T06:22:13.345Z,4.59
2019-02-25T06:23:13.328Z,4.60
2019-02-25T06:24:13.291Z,4.59
2019-02-25T06:25:13.309Z,4.58
2019-02-25T06:26:15.814Z,4.70
2019-02-25T06:27:13.279Z,4.67
2019-02-25T06:28:13.257Z,4.69
2019-02-25T06:29:13.244Z,4.78
2019-02-25T06:30:13.300Z,4.80
2019-02-25T06:31:13.221Z,4.70
2019-02-25T06:32:13.250Z,4.58
2019-02-25T06:33:13.196Z,4.59
2019-02-25T06:34:13.202Z,4.69
2019-02-25T06:35:13.212Z,4.62
2019-02-25T06:36:13.204Z,4.60
2019-02-25T06:37:13.184Z,4.62
2019-02-25T06:38:13.149Z,4.67
2019-02-25T06:39:13.145Z,4.67
2019-02-25T06:40:15.336Z,4.63
2019-02-25T06:41:13.112Z,4.55
2019-02-25T06:42:13.121Z,4.54
2019-02-25T06:43:20.351Z,4.65
2019-02-25T06:44:13.083Z,4.66
2019-02-25T06:45:13.080Z,4.55
2019-02-25T06:46:13.063Z,4.58
2019-02-25T06:47:13.081Z,4.58
2019-02-25T06:48:13.037Z,4.58
2019-02-25T06:49:13.029Z,4.70
2019-02-25T06:50:13.024Z,4.77
2019-02-25T06:51:13.009Z,4.82
2019-02-25T06:52:13.007Z,4.82
2019-02-25T06:53:13.004Z,4.82
2019-02-25T06:54:12.978Z,4.78
2019-02-25T06:55:12.965Z,4.70
2019-02-25T06:56:12.970Z,4.75
2019-02-25T06:57:12.944Z,4.78
2019-02-25T06:58:12.961Z,4.88
2019-02-25T06:59:12.921Z,4.89
2019-02-25T07:00:12.924Z,4.91
2019-02-25T07:01:12.902Z,4.99
2019-02-25T07:02:12.892Z,5.03
2019-02-25T07:03:12.909Z,4.96
2019-02-25T07:04:12.877Z,4.99
2019-02-25T07:05:12.860Z,4.96
2019-02-25T07:06:12.848Z,4.94
2019-02-25T07:07:12.838Z,4.99
2019-02-25T07:08:12.854Z,5.09
2019-02-25T07:09:12.822Z,5.09
2019-02-25T07:10:12.821Z,5.09
2019-02-25T07:11:12.803Z,5.22
2019-02-25T07:12:12.791Z,5.18
2019-02-25T07:13:12.797Z,5.20
2019-02-25T07:14:12.830Z,5.31
2019-02-25T07:15:12.760Z,5.24
2019-02-25T07:16:12.750Z,5.28
2019-02-25T07:17:12.742Z,5.30
2019-02-25T07:18:12.756Z,5.31
2019-02-25T07:19:12.711Z,5.30
2019-02-25T07:20:12.706Z,5.31
2019-02-25T07:21:12.706Z,5.33
2019-02-25T07:22:12.691Z,5.45
2019-02-25T07:23:12.704Z,5.43
2019-02-25T07:24:12.658Z,5.39
2019-02-25T07:25:12.655Z,5.45
2019-02-25T07:26:12.646Z,5.49
2019-02-25T07:27:12.632Z,5.51
2019-02-25T07:28:12.656Z,5.49
2019-02-25T07:29:12.605Z,5.64
2019-02-25T07:30:12.605Z,5.60
2019-02-25T07:31:12.597Z,5.65
2019-02-25T07:32:12.573Z,5.67
2019-02-25T07:33:12.587Z,5.67
2019-02-25T07:34:12.564Z,5.65
2019-02-25T07:35:12.546Z,5.64
2019-02-25T07:36:12.533Z,5.76
2019-02-25T07:37:12.523Z,5.79
2019-02-25T07:38:12.533Z,5.79
2019-02-25T07:39:12.503Z,5.83
2019-02-25T07:40:12.506Z,5.89
2019-02-25T07:41:12.482Z,5.89
2019-02-25T07:42:12.473Z,5.94
2019-02-25T07:43:12.493Z,6.04
2019-02-25T07:44:12.452Z,6.06
2019-02-25T07:45:12.454Z,6.17
2019-02-25T07:46:12.434Z,6.15
2019-02-25T07:47:12.419Z,6.19
2019-02-25T07:48:12.427Z,6.41
2019-02-25T07:49:12.399Z,6.49
2019-02-25T07:50:12.403Z,6.41
2019-02-25T07:51:12.390Z,6.46
2019-02-25T07:52:12.375Z,6.61
2019-02-25T07:53:12.398Z,6.52
2019-02-25T07:54:12.349Z,6.70
2019-02-25T07:55:12.345Z,6.67
2019-02-25T07:56:12.338Z,6.79
2019-02-25T07:57:12.320Z,6.76
2019-02-25T07:58:12.331Z,6.91
2019-02-25T07:59:12.296Z,6.84
2019-02-25T08:00:12.289Z,6.91
2019-02-25T08:01:12.277Z,7.07
2019-02-25T08:02:12.287Z,7.16
2019-02-25T08:03:12.284Z,7.20
2019-02-25T08:04:12.253Z,7.21
2019-02-25T08:05:12.236Z,7.25
2019-02-25T08:06:12.225Z,7.40
2019-02-25T08:07:12.214Z,7.35
2019-02-25T08:08:12.226Z,7.49
2019-02-25T08:09:12.209Z,7.57
2019-02-25T08:10:12.204Z,7.72
2019-02-25T08:11:12.181Z,7.69
2019-02-25T08:12:12.162Z,7.79
2019-02-25T08:13:12.173Z,7.93
2019-02-25T08:14:12.145Z,8.04
2019-02-25T08:15:12.143Z,8.05
2019-02-25T08:16:12.128Z,8.22
2019-02-25T08:17:12.124Z,8.34
2019-02-25T08:18:12.130Z,8.41
2019-02-25T08:19:12.094Z,8.59
2019-02-25T08:20:12.081Z,8.86
2019-02-25T08:21:12.074Z,8.98
2019-02-25T08:22:12.067Z,9.04
2019-02-25T08:23:12.081Z,9.21
2019-02-25T08:24:12.042Z,9.29
2019-02-25T08:25:12.027Z,9.56
2019-02-25T08:26:12.033Z,9.76
2019-02-25T08:27:12.005Z,9.81
2019-02-25T08:28:12.003Z,9.99
2019-02-25T08:29:12.345Z,10.26
2019-02-25T08:30:12.028Z,10.48
2019-02-25T08:31:11.972Z,10.66
2019-02-25T08:32:11.984Z,10.85
2019-02-25T08:33:11.942Z,10.97
2019-02-25T08:34:18.328Z,11.22
2019-02-25T08:35:12.918Z,11.24
2019-02-25T08:36:11.909Z,11.40
2019-02-25T08:37:11.898Z,11.47
2019-02-25T08:38:11.893Z,11.57
2019-02-25T08:39:11.897Z,11.73
2019-02-25T08:40:11.874Z,11.95
2019-02-25T08:41:11.853Z,12.10
2019-02-25T08:42:11.842Z,12.20
2019-02-25T08:43:11.840Z,12.38
2019-02-25T08:44:11.844Z,12.47
2019-02-25T08:45:11.815Z,12.57
2019-02-25T08:46:11.822Z,12.77
2019-02-25T08:47:11.788Z,12.78
2019-02-25T08:48:11.778Z,12.68
2019-02-25T08:49:11.785Z,12.86
2019-02-25T08:50:11.759Z,13.00
2019-02-25T08:51:11.752Z,13.20
2019-02-25T08:52:11.751Z,13.28
2019-02-25T08:53:11.718Z,13.38
2019-02-25T08:54:11.730Z,13.70
2019-02-25T08:55:11.701Z,13.87
2019-02-25T08:56:11.686Z,13.89
2019-02-25T08:57:11.680Z,13.91
2019-02-25T08:58:11.668Z,14.07
2019-02-25T08:59:11.705Z,14.21
2019-02-25T09:00:11.643Z,14.52
2019-02-25T09:01:11.634Z,14.83
2019-02-25T09:02:11.619Z,15.06
2019-02-25T09:03:11.613Z,15.16
2019-02-25T09:04:11.621Z,15.32
2019-02-25T09:05:11.591Z,15.31
2019-02-25T09:06:11.585Z,15.38
2019-02-25T09:07:11.567Z,15.51
2019-02-25T09:08:11.558Z,15.68
2019-02-25T09:09:11.573Z,15.68
2019-02-25T09:10:13.436Z,15.87
2019-02-25T09:11:14.147Z,16.07
2019-02-25T09:12:11.513Z,15.87
2019-02-25T09:13:11.509Z,15.78
2019-02-25T09:14:11.516Z,15.75
2019-02-25T09:15:11.487Z,16.01
2019-02-25T09:16:11.478Z,16.39
2019-02-25T09:17:11.475Z,16.34
2019-02-25T09:18:11.448Z,16.39
2019-02-25T09:19:11.469Z,16.53
2019-02-25T09:20:11.447Z,16.50
2019-02-25T09:21:11.426Z,16.83
2019-02-25T09:22:11.410Z,16.85
2019-02-25T09:23:11.395Z,16.83
2019-02-25T09:24:11.414Z,16.73
2019-02-25T09:25:11.373Z,16.76
2019-02-25T09:26:11.927Z,16.86
2019-02-25T09:27:11.355Z,17.14
2019-02-25T09:28:11.344Z,17.44
2019-02-25T09:29:11.356Z,18.07
2019-02-25T09:30:11.325Z,18.47
2019-02-25T09:31:11.311Z,18.30
2019-02-25T09:32:11.305Z,17.89
2019-02-25T09:33:11.290Z,17.38
2019-02-25T09:34:11.843Z,17.12
2019-02-25T09:35:11.267Z,17.08
2019-02-25T09:36:11.256Z,17.12
2019-02-25T09:37:11.243Z,17.43
2019-02-25T09:38:11.242Z,17.96
2019-02-25T09:39:11.271Z,17.82
2019-02-25T09:40:11.211Z,17.82
2019-02-25T09:41:11.200Z,17.66
2019-02-25T09:42:11.189Z,17.81
2019-02-25T09:43:11.181Z,18.23
2019-02-25T09:44:11.202Z,18.36
2019-02-25T09:45:11.166Z,18.82
2019-02-25T09:46:11.148Z,19.23
2019-02-25T09:47:11.139Z,19.40
2019-02-25T09:48:11.128Z,19.68
2019-02-25T09:49:11.136Z,19.74
2019-02-25T09:50:11.105Z,20.24
2019-02-25T09:51:11.441Z,20.33
2019-02-25T09:52:11.084Z,20.59
2019-02-25T09:53:11.073Z,20.79
2019-02-25T09:54:11.088Z,21.25
2019-02-25T09:55:11.050Z,21.61
2019-02-25T09:56:11.042Z,22.18
2019-02-25T09:57:11.042Z,22.31
2019-02-25T09:58:11.019Z,22.77
2019-02-25T09:59:11.031Z,22.62
2019-02-25T10:00:10.999Z,22.58
2019-02-25T10:01:10.988Z,22.52
2019-02-25T10:02:10.992Z,22.40
2019-02-25T10:03:10.981Z,22.49
2019-02-25T10:04:10.978Z,22.37
2019-02-25T10:05:10.946Z,22.68
2019-02-25T10:06:12.921Z,23.17
2019-02-25T10:07:10.925Z,22.67
2019-02-25T10:08:10.921Z,22.64
2019-02-25T10:09:10.925Z,22.61
2019-02-25T10:10:10.912Z,22.60
2019-02-25T10:11:10.883Z,22.65
2019-02-25T10:12:10.875Z,22.51
2019-02-25T10:13:10.861Z,22.35
2019-02-25T10:14:10.858Z,22.79
2019-02-25T10:15:10.873Z,23.50
2019-02-25T10:16:10.832Z,24.16
2019-02-25T10:17:10.823Z,24.08
2019-02-25T10:18:10.835Z,23.93
2019-02-25T10:19:10.800Z,23.88
2019-02-25T10:20:10.808Z,23.43
2019-02-25T10:21:10.796Z,23.70
2019-02-25T10:22:10.768Z,23.88
2019-02-25T10:23:10.759Z,24.31
2019-02-25T10:24:10.749Z,24.62
2019-02-25T10:25:10.756Z,24.80
2019-02-25T10:26:10.728Z,24.96
2019-02-25T10:27:10.731Z,24.85
2019-02-25T10:28:10.706Z,24.88
2019-02-25T10:29:10.697Z,25.13
2019-02-25T10:30:10.704Z,25.00
2019-02-25T10:31:11.483Z,24.68
2019-02-25T10:32:10.664Z,24.67
2019-02-25T10:33:10.670Z,24.35
2019-02-25T10:34:10.651Z,24.06
2019-02-25T10:35:10.663Z,23.80
2019-02-25T10:36:10.623Z,23.90
2019-02-25T10:37:11.068Z,24.09
2019-02-25T10:38:10.603Z,24.52
2019-02-25T10:39:12.620Z,24.71
2019-02-25T10:40:10.605Z,24.47
2019-02-25T10:41:10.573Z,24.27
2019-02-25T10:42:10.562Z,23.88
2019-02-25T10:43:10.551Z,23.88
2019-02-25T10:44:10.555Z,23.79
2019-02-25T10:45:11.055Z,23.90
2019-02-25T10:46:11.717Z,23.93
2019-02-25T10:47:11.032Z,24.31
2019-02-25T10:48:10.501Z,24.32
2019-02-25T10:49:11.638Z,24.73
2019-02-25T10:50:10.505Z,25.30
2019-02-25T10:51:11.554Z,25.35
2019-02-25T10:52:11.222Z,25.32
2019-02-25T10:53:10.996Z,25.43
2019-02-25T10:54:10.439Z,26.23
2019-02-25T10:55:10.450Z,26.95
2019-02-25T10:56:10.418Z,27.39
2019-02-25T10:57:10.423Z,27.06
2019-02-25T10:58:10.401Z,26.88
2019-02-25T10:59:10.390Z,26.52
2019-02-25T11:00:11.735Z,26.66
2019-02-25T11:01:13.479Z,26.75
2019-02-25T11:02:13.183Z,27.13
2019-02-25T11:03:12.371Z,27.06
2019-02-25T11:04:10.341Z,26.75
2019-02-25T11:05:10.348Z,26.30
2019-02-25T11:06:10.319Z,26.43
2019-02-25T11:07:10.309Z,26.81
2019-02-25T11:08:11.642Z,26.99
2019-02-25T11:09:11.064Z,27.63
2019-02-25T11:10:11.933Z,28.30
2019-02-25T11:11:10.282Z,28.59
2019-02-25T11:12:10.260Z,28.41
2019-02-25T11:13:10.251Z,28.18
2019-02-25T11:14:10.239Z,27.84
2019-02-25T11:15:11.645Z,27.90
2019-02-25T11:16:11.814Z,28.33
2019-02-25T11:17:10.218Z,28.48
2019-02-25T11:18:10.210Z,28.71
2019-02-25T11:19:10.189Z,29.05
2019-02-25T11:20:10.214Z,29.24
2019-02-25T11:21:10.657Z,29.26
2019-02-25T11:22:12.061Z,29.27
2019-02-25T11:23:12.311Z,29.98
2019-02-25T11:24:10.139Z,29.82
2019-02-25T11:25:10.128Z,29.42
2019-02-25T11:26:10.142Z,29.89
2019-02-25T11:27:10.128Z,30.38
2019-02-25T11:28:22.621Z,30.46
2019-02-25T11:29:11.822Z,30.65
2019-02-25T11:30:11.963Z,30.94
2019-02-25T11:31:10.110Z,30.67
2019-02-25T11:32:10.059Z,30.24
2019-02-25T11:33:10.049Z,30.02
2019-02-25T11:34:10.047Z,29.97
2019-02-25T11:35:10.767Z,30.19
2019-02-25T11:36:10.629Z,30.07
2019-02-25T11:37:10.010Z,30.42
2019-02-25T11:38:10.006Z,30.83
2019-02-25T11:39:09.993Z,30.94
2019-02-25T11:40:09.987Z,30.97
2019-02-25T11:41:11.300Z,30.83
2019-02-25T11:42:10.912Z,30.51
2019-02-25T11:43:10.577Z,29.58
2019-02-25T11:44:09.941Z,30.13
2019-02-25T11:45:09.932Z,30.26
2019-02-25T11:46:09.956Z,30.46
2019-02-25T11:47:09.912Z,30.58
2019-02-25T11:48:09.907Z,30.67
2019-02-25T11:49:09.895Z,30.55
2019-02-25T11:50:09.882Z,29.37
2019-02-25T11:51:09.891Z,27.03
2019-02-25T11:52:09.877Z,25.90
2019-02-25T11:53:09.857Z,24.95
2019-02-25T11:54:10.167Z,24.77
2019-02-25T11:55:09.831Z,25.03
2019-02-25T11:56:09.840Z,25.76
2019-02-25T11:57:09.812Z,26.45
2019-02-25T11:58:09.814Z,27.27
2019-02-25T11:59:09.792Z,28.31
2019-02-25T12:00:09.786Z,28.96
2019-02-25T12:01:09.797Z,29.36
2019-02-25T12:02:09.762Z,29.82
2019-02-25T12:03:09.751Z,30.07
2019-02-25T12:04:09.751Z,28.85
2019-02-25T12:05:09.731Z,27.94
2019-02-25T12:06:09.749Z,28.44
2019-02-25T12:07:09.710Z,28.24
2019-02-25T12:08:09.701Z,28.31
2019-02-25T12:09:09.690Z,28.66
2019-02-25T12:10:09.776Z,29.04
2019-02-25T12:11:09.700Z,29.26
2019-02-25T12:12:09.662Z,29.45
2019-02-25T12:13:09.654Z,29.76
2019-02-25T12:14:09.650Z,29.48
2019-02-25T12:15:09.631Z,28.88
2019-02-25T12:16:09.658Z,28.74
2019-02-25T12:17:09.612Z,28.46
2019-02-25T12:18:09.600Z,28.48
2019-02-25T12:19:17.751Z,28.58
2019-02-25T12:20:10.579Z,28.48
2019-02-25T12:21:09.601Z,27.54
2019-02-25T12:22:09.568Z,27.63
2019-02-25T12:23:09.551Z,27.54
2019-02-25T12:24:09.543Z,27.41
2019-02-25T12:25:09.534Z,26.70
2019-02-25T12:26:09.542Z,27.04
2019-02-25T12:27:09.511Z,27.29
2019-02-25T12:28:09.511Z,27.55
2019-02-25T12:29:11.026Z,27.41
2019-02-25T12:30:09.483Z,27.87
2019-02-25T12:31:09.499Z,27.54
2019-02-25T12:32:09.470Z,27.21
2019-02-25T12:33:09.453Z,27.75
2019-02-25T12:34:09.451Z,27.96
2019-02-25T12:35:09.432Z,27.66
2019-02-25T12:36:09.441Z,27.62
2019-02-25T12:37:09.415Z,27.72
2019-02-25T12:38:09.404Z,27.94
2019-02-25T12:39:09.399Z,28.15
2019-02-25T12:40:09.390Z,28.14
2019-02-25T12:41:09.408Z,28.24
2019-02-25T12:42:09.360Z,28.14
2019-02-25T12:43:09.352Z,27.96
2019-02-25T12:44:09.355Z,27.87
2019-02-25T12:45:09.334Z,27.88
2019-02-25T12:46:09.335Z,27.47
2019-02-25T12:47:09.330Z,26.43
2019-02-25T12:48:09.301Z,25.36
2019-02-25T12:49:09.291Z,24.21
2019-02-25T12:50:09.284Z,23.27
2019-02-25T12:51:09.271Z,22.36
2019-02-25T12:52:09.300Z,21.77
2019-02-25T12:53:09.252Z,21.27
2019-02-25T12:54:09.243Z,20.87
2019-02-25T12:55:09.237Z,20.57
2019-02-25T12:56:09.221Z,20.23
2019-02-25T12:57:09.239Z,19.91
2019-02-25T12:58:09.219Z,19.74
2019-02-25T12:59:09.188Z,19.55
2019-02-25T13:00:09.179Z,19.63
2019-02-25T13:01:09.172Z,19.63
2019-02-25T13:02:09.188Z,19.63
2019-02-25T13:03:09.159Z,19.62
2019-02-25T13:04:09.151Z,19.61
2019-02-25T13:05:09.127Z,19.62
2019-02-25T13:06:09.116Z,19.48
2019-02-25T13:07:09.127Z,19.25
2019-02-25T13:08:09.094Z,18.99
2019-02-25T13:09:09.087Z,18.82
2019-02-25T13:10:09.092Z,18.85
2019-02-25T13:11:09.063Z,18.75
2019-02-25T13:12:09.075Z,18.63
2019-02-25T13:13:09.050Z,18.44
2019-02-25T13:14:09.032Z,18.36
2019-02-25T13:15:13.254Z,18.29
2019-02-25T13:16:09.023Z,18.21
2019-02-25T13:17:09.021Z,18.20
2019-02-25T13:18:08.988Z,18.18
2019-02-25T13:19:08.982Z,18.21
2019-02-25T13:20:08.971Z,18.32
2019-02-25T13:21:08.957Z,18.33
2019-02-25T13:22:08.982Z,18.36
2019-02-25T13:23:08.939Z,18.25
2019-02-25T13:24:09.917Z,18.14
2019-02-25T13:25:10.572Z,18.03
2019-02-25T13:26:08.906Z,18.08
2019-02-25T13:27:11.052Z,18.10
2019-02-25T13:28:08.889Z,18.10
2019-02-25T13:29:08.881Z,18.14
2019-02-25T13:30:08.861Z,17.99
2019-02-25T13:31:10.178Z,18.03
2019-02-25T13:32:08.867Z,17.87
2019-02-25T13:33:08.829Z,17.84
2019-02-25T13:34:08.824Z,17.79
2019-02-25T13:35:08.817Z,17.75
2019-02-25T13:36:08.797Z,17.81
2019-02-25T13:37:08.805Z,17.72
2019-02-25T13:38:08.780Z,17.64
2019-02-25T13:39:08.773Z,17.79
2019-02-25T13:40:08.760Z,17.66
2019-02-25T13:41:08.751Z,17.68
2019-02-25T13:42:08.907Z,17.75
2019-02-25T13:43:08.720Z,17.68
2019-02-25T13:44:08.710Z,17.72
2019-02-25T13:45:08.699Z,17.70
2019-02-25T13:46:08.691Z,17.66
2019-02-25T13:47:08.735Z,17.58
2019-02-25T13:48:08.672Z,17.62
2019-02-25T13:49:08.660Z,17.52
2019-02-25T13:50:08.648Z,17.44
2019-02-25T13:51:08.637Z,17.44
2019-02-25T13:52:08.642Z,17.38
2019-02-25T13:53:08.612Z,17.41
2019-02-25T13:54:08.601Z,17.48
2019-02-25T13:55:08.594Z,17.46
2019-02-25T13:56:08.597Z,17.54
2019-02-25T13:57:08.629Z,17.51
2019-02-25T13:58:08.611Z,17.59
2019-02-25T13:59:08.583Z,17.62
2019-02-25T14:00:08.568Z,17.52
2019-02-25T14:01:08.584Z,17.63
2019-02-25T14:02:08.626Z,17.56
2019-02-25T14:03:08.534Z,17.58
2019-02-25T14:04:08.499Z,17.56
2019-02-25T14:05:08.511Z,17.55
2019-02-25T14:06:08.477Z,17.59
2019-02-25T14:07:08.489Z,17.52
2019-02-25T14:08:08.468Z,17.56
2019-02-25T14:09:08.447Z,17.54
2019-02-25T14:10:08.455Z,17.43
2019-02-25T14:11:08.424Z,17.49
2019-02-25T14:12:08.457Z,17.52
2019-02-25T14:13:08.417Z,17.55
2019-02-25T14:14:08.410Z,17.56
2019-02-25T14:15:08.379Z,17.55
2019-02-25T14:16:08.376Z,17.48
2019-02-25T14:17:08.394Z,17.62
2019-02-25T14:18:08.356Z,17.52
2019-02-25T14:19:08.338Z,17.54
2019-02-25T14:20:08.355Z,17.54
2019-02-25T14:21:08.328Z,17.55
2019-02-25T14:22:08.370Z,17.51
2019-02-25T14:23:08.312Z,17.48
2019-02-25T14:24:08.308Z,17.51
2019-02-25T14:25:08.302Z,17.48
2019-02-25T14:26:08.268Z,17.52
2019-02-25T14:27:08.252Z,17.49
2019-02-25T14:28:08.341Z,17.54
2019-02-25T14:29:08.234Z,17.54
2019-02-25T14:30:09.404Z,17.58
2019-02-25T14:31:08.254Z,17.52
2019-02-25T14:32:10.900Z,17.56
2019-02-25T14:33:08.218Z,17.48
2019-02-25T14:34:08.189Z,17.44
2019-02-25T14:35:08.190Z,17.62
2019-02-25T14:36:10.665Z,17.59
2019-02-25T14:37:08.147Z,17.58
2019-02-25T14:38:10.366Z,17.59
2019-02-25T14:39:08.142Z,17.58
2019-02-25T14:40:08.660Z,17.62
2019-02-25T14:41:09.045Z,17.54
2019-02-25T14:42:09.381Z,17.56
2019-02-25T14:43:10.527Z,17.52
2019-02-25T14:44:08.110Z,17.48
2019-02-25T14:45:09.424Z,17.54
2019-02-25T14:46:11.810Z,17.56
2019-02-25T14:47:19.798Z,17.59
2019-02-25T14:48:10.733Z,17.52
2019-02-25T14:49:08.233Z,17.54
2019-02-25T14:50:08.023Z,17.64
2019-02-25T14:51:08.826Z,17.56
2019-02-25T14:52:07.994Z,17.56
2019-02-25T14:53:09.166Z,17.59
2019-02-25T14:54:07.965Z,17.56
2019-02-25T14:55:09.416Z,17.56
2019-02-25T14:56:07.955Z,17.52
2019-02-25T14:57:07.939Z,17.49
2019-02-25T14:58:09.825Z,17.54
2019-02-25T14:59:12.435Z,17.52
2019-02-25T15:00:08.903Z,17.51
2019-02-25T15:01:07.894Z,17.52
2019-02-25T15:02:08.688Z,17.43
2019-02-25T15:03:07.893Z,17.49
2019-02-25T15:04:07.870Z,17.41
2019-02-25T15:05:07.853Z,17.38
2019-02-25T15:06:07.838Z,17.48
2019-02-25T15:07:08.635Z,17.43
2019-02-25T15:08:07.839Z,17.38
2019-02-25T15:09:10.387Z,17.41
2019-02-25T15:10:08.472Z,17.41
2019-02-25T15:11:09.234Z,17.36
2019-02-25T15:12:11.055Z,17.41
2019-02-25T15:13:08.847Z,17.38
2019-02-25T15:14:08.569Z,17.34
2019-02-25T15:15:08.847Z,17.30
2019-02-25T15:16:07.735Z,17.34
2019-02-25T15:17:08.413Z,17.30
2019-02-25T15:18:07.746Z,17.25
2019-02-25T15:19:07.702Z,17.41
2019-02-25T15:20:07.697Z,17.34
2019-02-25T15:21:09.145Z,17.38
2019-02-25T15:22:07.674Z,17.38
2019-02-25T15:23:07.687Z,17.31
2019-02-25T15:24:08.494Z,17.43
2019-02-25T15:25:07.639Z,17.36
2019-02-25T15:26:07.647Z,17.30
2019-02-25T15:27:09.320Z,17.26
2019-02-25T15:28:11.094Z,17.28
2019-02-25T15:29:09.267Z,17.30
2019-02-25T15:30:07.604Z,17.30
2019-02-25T15:31:09.469Z,17.23
2019-02-25T15:32:07.582Z,17.26
2019-02-25T15:33:07.605Z,17.28
2019-02-25T15:34:08.938Z,17.30
2019-02-25T15:35:07.531Z,17.33
2019-02-25T15:36:07.520Z,17.28
2019-02-25T15:37:09.359Z,17.26
2019-02-25T15:38:07.519Z,17.19
2019-02-25T15:39:07.516Z,17.18
2019-02-25T15:40:09.840Z,17.23
2019-02-25T15:41:09.160Z,17.11
2019-02-25T15:42:07.457Z,17.14
2019-02-25T15:43:10.465Z,17.11
2019-02-25T15:44:08.980Z,17.07
2019-02-25T15:45:07.425Z,17.16
2019-02-25T15:46:07.419Z,17.16
2019-02-25T15:47:08.618Z,17.11
2019-02-25T15:48:07.409Z,17.12
2019-02-25T15:49:07.406Z,16.98
2019-02-25T15:50:08.070Z,17.03
2019-02-25T15:51:07.361Z,17.04
2019-02-25T15:52:07.353Z,17.00
2019-02-25T15:53:09.435Z,17.06
2019-02-25T15:54:07.357Z,17.01
2019-02-25T15:55:07.328Z,17.04
2019-02-25T15:56:08.092Z,17.07
2019-02-25T15:57:07.296Z,17.04
2019-02-25T15:58:08.740Z,17.12
2019-02-25T15:59:07.295Z,17.06
2019-02-25T16:00:07.269Z,17.07
2019-02-25T16:01:07.260Z,16.96
2019-02-25T16:02:07.726Z,16.97
2019-02-25T16:03:09.135Z,16.97
2019-02-25T16:04:09.160Z,16.96
2019-02-25T16:05:07.972Z,17.00
2019-02-25T16:06:08.374Z,16.94
2019-02-25T16:07:08.318Z,16.98
2019-02-25T16:08:07.200Z,16.91
2019-02-25T16:09:07.202Z,16.96
2019-02-25T16:10:09.530Z,16.97
2019-02-25T16:11:07.173Z,17.01
2019-02-25T16:12:07.942Z,17.00
2019-02-25T16:13:11.150Z,16.97
2019-02-25T16:14:08.155Z,16.96
2019-02-25T16:15:08.685Z,17.00
2019-02-25T16:16:07.094Z,16.91
2019-02-25T16:17:07.095Z,16.88
2019-02-25T16:18:07.074Z,16.82
2019-02-25T16:19:07.100Z,16.81
2019-02-25T16:20:07.056Z,16.79
2019-02-25T16:21:07.041Z,16.73
2019-02-25T16:22:09.182Z,16.71
2019-02-25T16:23:08.114Z,16.78
2019-02-25T16:24:11.589Z,16.67
2019-02-25T16:25:09.468Z,16.66
2019-02-25T16:26:06.989Z,16.67
2019-02-25T16:27:06.977Z,16.70
2019-02-25T16:28:08.155Z,16.64
2019-02-25T16:29:08.930Z,16.49
2019-02-25T16:30:06.947Z,16.52
2019-02-25T16:31:08.353Z,16.49
2019-02-25T16:32:06.942Z,16.49
2019-02-25T16:33:07.840Z,16.46
2019-02-25T16:34:06.951Z,16.38
2019-02-25T16:35:07.271Z,16.39
2019-02-25T16:36:07.873Z,16.27
2019-02-25T16:37:06.877Z,16.27
2019-02-25T16:38:07.331Z,16.27
2019-02-25T16:39:07.616Z,16.23
2019-02-25T16:40:08.849Z,16.21
2019-02-25T16:41:08.523Z,16.08
2019-02-25T16:42:06.820Z,16.09
2019-02-25T16:43:07.763Z,16.14
2019-02-25T16:44:08.683Z,16.05
2019-02-25T16:45:09.390Z,16.09
2019-02-25T16:46:08.820Z,16.08
2019-02-25T16:47:07.905Z,15.97
2019-02-25T16:48:06.759Z,15.93
2019-02-25T16:49:06.801Z,15.86
2019-02-25T16:50:06.766Z,15.83
2019-02-25T16:51:07.936Z,15.78
2019-02-25T16:52:06.711Z,15.65
2019-02-25T16:53:08.556Z,15.57
2019-02-25T16:54:09.218Z,15.60
2019-02-25T16:55:06.699Z,15.57
2019-02-25T16:56:07.901Z,15.56
2019-02-25T16:57:07.314Z,15.50
2019-02-25T16:58:10.715Z,15.44
2019-02-25T16:59:10.888Z,15.38
2019-02-25T17:00:07.774Z,15.36
2019-02-25T17:01:07.967Z,15.31
2019-02-25T17:02:07.107Z,15.28
2019-02-25T17:03:08.083Z,15.28
2019-02-25T17:04:06.592Z,15.16
2019-02-25T17:05:06.593Z,15.20
2019-02-25T17:06:07.380Z,15.20
2019-02-25T17:07:06.553Z,15.16
2019-02-25T17:08:08.160Z,15.06
2019-02-25T17:09:06.540Z,15.06
2019-02-25T17:10:06.540Z,15.16
2019-02-25T17:11:06.512Z,15.16
2019-02-25T17:12:07.259Z,15.19
2019-02-25T17:13:08.103Z,15.02
2019-02-25T17:14:06.475Z,15.02
2019-02-25T17:15:09.958Z,15.03
2019-02-25T17:16:17.660Z,14.91
2019-02-25T17:17:07.454Z,14.88
2019-02-25T17:18:06.431Z,14.83
2019-02-25T17:19:06.425Z,14.83
2019-02-25T17:20:10.229Z,14.81
2019-02-25T17:21:08.090Z,14.70
2019-02-25T17:22:06.389Z,14.62
2019-02-25T17:23:09.420Z,14.68
2019-02-25T17:24:07.319Z,14.70
2019-02-25T17:25:09.681Z,14.57
2019-02-25T17:26:07.812Z,14.51
2019-02-25T17:27:06.967Z,14.50
2019-02-25T17:28:08.162Z,14.39
2019-02-25T17:29:07.316Z,14.36
2019-02-25T17:30:06.328Z,14.42
2019-02-25T17:31:07.037Z,14.29
2019-02-25T17:32:06.281Z,14.29
2019-02-25T17:33:08.058Z,14.20
2019-02-25T17:34:06.266Z,14.20
2019-02-25T17:35:07.414Z,14.27
2019-02-25T17:36:07.544Z,14.17
2019-02-25T17:37:07.988Z,14.06
2019-02-25T17:38:06.223Z,14.12
2019-02-25T17:39:08.184Z,14.07
2019-02-25T17:40:06.843Z,13.97
2019-02-25T17:41:06.677Z,13.99
2019-02-25T17:42:08.100Z,13.95
2019-02-25T17:43:06.167Z,13.79
2019-02-25T17:44:06.154Z,13.88
2019-02-25T17:45:07.679Z,13.85
2019-02-25T17:46:07.043Z,13.78
2019-02-25T17:47:06.720Z,13.84
2019-02-25T17:48:08.359Z,13.71
2019-02-25T17:49:07.771Z,13.69
2019-02-25T17:50:07.011Z,13.66
2019-02-25T17:51:06.200Z,13.70
2019-02-25T17:52:06.070Z,13.60
2019-02-25T17:53:07.456Z,13.59
2019-02-25T17:54:07.597Z,13.49
2019-02-25T17:55:06.686Z,13.55
2019-02-25T17:56:06.052Z,13.60
2019-02-25T17:57:07.528Z,13.59
2019-02-25T17:58:06.003Z,13.41
2019-02-25T17:59:07.560Z,13.38
2019-02-25T18:00:06.841Z,13.32
2019-02-25T18:01:05.990Z,13.28
2019-02-25T18:02:06.661Z,13.20
2019-02-25T18:03:05.946Z,13.26
2019-02-25T18:04:06.649Z,13.22
2019-02-25T18:05:05.930Z,13.17
2019-02-25T18:06:07.504Z,13.17
2019-02-25T18:07:05.919Z,13.12
2019-02-25T18:08:08.102Z,13.03
2019-02-25T18:09:05.895Z,13.07
2019-02-25T18:10:07.675Z,13.07
2019-02-25T18:11:05.881Z,12.93
2019-02-25T18:12:06.473Z,12.96
2019-02-25T18:13:08.054Z,12.87
2019-02-25T18:14:05.839Z,12.86
2019-02-25T18:15:07.339Z,12.79
2019-02-25T18:16:05.829Z,12.79
2019-02-25T18:17:06.145Z,12.70
2019-02-25T18:18:09.133Z,12.68
2019-02-25T18:19:06.774Z,12.71
2019-02-25T18:20:05.762Z,12.62
2019-02-25T18:21:06.355Z,12.62
2019-02-25T18:22:05.743Z,12.52
2019-02-25T18:23:05.739Z,12.52
2019-02-25T18:24:05.718Z,12.57
2019-02-25T18:25:05.729Z,12.41
2019-02-25T18:26:05.716Z,12.50
2019-02-25T18:27:06.945Z,12.32
2019-02-25T18:28:06.385Z,12.34
2019-02-25T18:29:07.462Z,12.35
2019-02-25T18:30:05.659Z,12.32
2019-02-25T18:31:09.076Z,12.32
2019-02-25T18:32:08.059Z,12.28
2019-02-25T18:33:05.635Z,12.35
2019-02-25T18:34:06.963Z,12.34
2019-02-25T18:35:05.597Z,12.27
2019-02-25T18:36:07.125Z,12.35
2019-02-25T18:37:07.141Z,12.37
2019-02-25T18:38:07.638Z,12.24
2019-02-25T18:39:05.562Z,12.32
2019-02-25T18:40:05.542Z,12.32
2019-02-25T18:41:06.947Z,12.27
2019-02-25T18:42:05.526Z,12.24
2019-02-25T18:43:06.811Z,12.19
2019-02-25T18:44:07.069Z,12.10
2019-02-25T18:45:05.496Z,12.04
2019-02-25T18:46:07.267Z,12.07
2019-02-25T18:47:05.495Z,11.96
2019-02-25T18:48:05.469Z,11.99
2019-02-25T18:49:07.268Z,11.83
2019-02-25T18:50:05.431Z,11.79
2019-02-25T18:51:05.459Z,11.78
2019-02-25T18:52:05.426Z,11.82
2019-02-25T18:53:05.396Z,11.82
2019-02-25T18:54:05.386Z,11.79
2019-02-25T18:55:06.718Z,11.80
2019-02-25T18:56:05.368Z,11.75
2019-02-25T18:57:05.984Z,11.72
2019-02-25T18:58:07.292Z,11.82
2019-02-25T18:59:08.747Z,11.80
2019-02-25T19:00:06.328Z,11.75
2019-02-25T19:01:06.879Z,11.75
2019-02-25T19:02:05.814Z,11.73
2019-02-25T19:03:05.288Z,11.75
2019-02-25T19:04:05.280Z,11.70
2019-02-25T19:05:07.117Z,11.73
2019-02-25T19:06:05.288Z,11.60
2019-02-25T19:07:05.852Z,11.58
2019-02-25T19:08:05.231Z,11.60
2019-02-25T19:09:05.235Z,11.62
2019-02-25T19:10:05.218Z,11.54
2019-02-25T19:11:05.209Z,11.60
2019-02-25T19:12:05.215Z,11.62
2019-02-25T19:13:05.191Z,11.47
2019-02-25T19:14:05.215Z,11.46
2019-02-25T19:15:06.728Z,11.47